Time;durP1;ratioP1;P1;durP2;ratioP2;P2;SDS_P1;SDS_P2;PMS_P1;PMS_P2;Temp;Humidity;BMP_temperature;BMP_pressure;BME280_temperature;BME280_humidity;BME280_pressure;Samples;Min_cycle;Max_cycle;Signal;HPM_P1;HPM_P2
2023/09/12 00:01:06;;;;;;;15.30;9.78;;;;;;;15.22;70.36;100469.44;1634190;85;21175;-64
2023/09/12 00:03:37;;;;;;;20.72;9.60;;;;;;;15.22;70.47;100462.54;1653399;86;21057;-64
2023/09/12 00:06:06;;;;;;;15.53;9.35;;;;;;;15.21;70.49;100469.67;1653907;87;21475;-64
2023/09/12 00:08:35;;;;;;;14.50;8.90;;;;;;;15.18;70.57;100465.98;1653752;87;21088;-65
2023/09/12 00:11:11;;;;;;;16.57;9.35;;;;;;;15.17;70.66;100473.41;1653650;86;21084;-65
2023/09/12 00:13:41;;;;;;;14.85;9.00;;;;;;;15.16;70.63;100475.02;1653442;87;21495;-67
2023/09/12 00:16:10;;;;;;;15.05;9.30;;;;;;;15.11;70.73;100478.46;1653562;87;21080;-66
2023/09/12 00:18:42;;;;;;;15.70;9.18;;;;;;;15.08;70.79;100479.45;1653551;87;21460;-65
2023/09/12 00:21:12;;;;;;;15.50;9.05;;;;;;;15.06;71.00;100474.16;1653447;87;21040;-65
2023/09/12 00:23:41;;;;;;;15.40;9.43;;;;;;;15.05;71.18;100479.89;1656916;86;21469;-66
2023/09/12 00:26:10;;;;;;;16.52;9.78;;;;;;;15.05;71.33;100475.76;1653412;87;21102;-64
2023/09/12 00:28:40;;;;;;;14.90;9.75;;;;;;;15.05;71.45;100482.66;1653446;87;21056;-64
2023/09/12 00:31:10;;;;;;;16.23;9.00;;;;;;;15.04;71.48;100480.97;1653461;87;21076;-64
2023/09/12 00:33:39;;;;;;;18.05;10.15;;;;;;;15.02;71.54;100483.11;1653703;87;21061;-64
2023/09/12 00:36:09;;;;;;;18.12;9.48;;;;;;;14.99;71.61;100481.64;1653574;87;21068;-65
2023/09/12 00:38:37;;;;;;;15.78;9.50;;;;;;;14.95;71.69;100478.14;1653428;87;21541;-64
2023/09/12 00:41:07;;;;;;;14.33;9.73;;;;;;;14.93;71.80;100477.52;1653615;87;21570;-64
2023/09/12 00:43:37;;;;;;;15.40;9.65;;;;;;;14.86;71.93;100477.58;1653599;87;21452;-64
2023/09/12 00:46:07;;;;;;;15.63;9.88;;;;;;;14.84;72.08;100476.42;1653391;87;21100;-65
2023/09/12 00:48:37;;;;;;;15.50;10.20;;;;;;;14.83;72.17;100474.73;1653448;87;21050;-66
2023/09/12 00:51:06;;;;;;;14.13;9.63;;;;;;;14.82;72.27;100485.45;1619280;87;21488;-65
2023/09/12 00:53:35;;;;;;;14.10;9.30;;;;;;;14.82;72.31;100482.70;1653399;86;21120;-65
2023/09/12 00:56:04;;;;;;;16.82;9.33;;;;;;;14.83;72.35;100475.27;1653755;86;21045;-64
2023/09/12 00:58:33;;;;;;;17.00;9.28;;;;;;;14.80;72.39;100482.08;1653587;87;21115;-64
2023/09/12 01:01:03;;;;;;;14.78;9.28;;;;;;;14.78;72.47;100482.83;1653437;87;21091;-63
2023/09/12 01:03:32;;;;;;;13.22;8.98;;;;;;;14.77;72.61;100485.28;1653325;87;21052;-64
2023/09/12 01:06:05;;;;;;;15.53;9.58;;;;;;;14.78;72.65;100481.45;1653592;87;21496;-64
2023/09/12 01:08:37;;;;;;;18.77;9.70;;;;;;;14.77;72.69;100474.25;1653771;87;21041;-64
2023/09/12 01:11:07;;;;;;;17.00;9.68;;;;;;;14.77;72.73;100483.90;1653651;87;21124;-64
2023/09/12 01:13:39;;;;;;;14.93;9.65;;;;;;;14.77;72.80;100483.05;1653378;87;21077;-63
2023/09/12 01:16:07;;;;;;;14.60;9.35;;;;;;;14.78;72.82;100480.08;1653248;86;21069;-63
2023/09/12 01:18:36;;;;;;;16.67;9.18;;;;;;;14.81;72.84;100484.30;1653582;87;21500;-65
2023/09/12 01:21:23;;;;;;;17.20;9.40;;;;;;;14.80;72.89;100479.31;1653611;87;21041;-64
2023/09/12 01:24:16;;;;;;;14.78;9.40;;;;;;;14.79;72.95;100479.00;1653326;86;21952;-65
2023/09/12 01:27:24;;;;;;;12.98;9.40;;;;;;;14.77;73.05;100477.00;1604154;86;21052;-65
2023/09/12 01:30:00;;;;;;;18.65;10.63;;;;;;;14.75;73.17;100476.92;1653661;87;21033;-64
2023/09/12 01:32:29;;;;;;;13.70;9.03;;;;;;;14.73;73.15;100471.63;1653432;87;21057;-64
2023/09/12 01:34:59;;;;;;;15.68;9.15;;;;;;;14.72;73.17;100474.60;1653421;87;21024;-65
2023/09/12 01:37:29;;;;;;;15.40;9.53;;;;;;;14.70;73.28;100474.83;1653591;87;21072;-64
2023/09/12 01:39:58;;;;;;;15.68;9.35;;;;;;;14.66;73.38;100474.96;1653439;87;21056;-65
2023/09/12 01:42:33;;;;;;;18.98;9.73;;;;;;;14.64;73.45;100478.48;1653426;86;21088;-64
2023/09/12 01:45:03;;;;;;;18.02;10.13;;;;;;;14.65;73.54;100476.03;1653621;87;21073;-64
2023/09/12 01:47:33;;;;;;;15.90;10.05;;;;;;;14.64;73.52;100475.72;1653312;87;21092;-65
2023/09/12 01:50:02;;;;;;;19.30;8.95;;;;;;;14.61;73.62;100476.16;1653441;87;21073;-64
2023/09/12 01:52:31;;;;;;;19.87;10.15;;;;;;;14.59;73.76;100475.01;1653621;87;21054;-63
2023/09/12 01:55:00;;;;;;;14.55;9.30;;;;;;;14.57;73.81;100474.39;1653400;87;21084;-63
2023/09/12 01:57:33;;;;;;;15.65;9.30;;;;;;;14.59;73.87;100476.92;1634980;87;21076;-68
2023/09/12 02:00:04;;;;;;;14.58;8.70;;;;;;;14.59;73.88;100475.55;1653407;87;21013;-64
2023/09/12 02:02:34;;;;;;;15.70;9.00;;;;;;;14.57;73.86;100472.16;1627068;86;21045;-65
2023/09/12 02:05:20;;;;;;;16.32;9.25;;;;;;;14.54;73.94;100476.20;1619324;88;21068;-64
2023/09/12 02:07:49;;;;;;;14.30;8.83;;;;;;;14.53;73.97;100483.33;1619396;89;21144;-63
2023/09/12 02:10:18;;;;;;;16.02;9.05;;;;;;;14.54;74.05;100481.72;1619529;87;21073;-64
2023/09/12 02:12:48;;;;;;;14.10;8.73;;;;;;;14.54;73.96;100477.59;1619295;88;21145;-63
2023/09/12 02:15:18;;;;;;;13.95;9.10;;;;;;;14.54;73.95;100473.98;1601803;89;21057;-64
2023/09/12 02:17:50;;;;;;;16.30;8.78;;;;;;;14.53;74.03;100479.19;1619208;89;21097;-64
2023/09/12 02:20:19;;;;;;;14.70;8.95;;;;;;;14.50;74.14;100470.83;1619421;89;21457;-63
2023/09/12 02:22:48;;;;;;;13.55;8.28;;;;;;;14.52;74.13;100474.20;1619376;87;21061;-65
2023/09/12 02:25:18;;;;;;;15.88;8.73;;;;;;;14.51;74.01;100477.19;1619221;87;21105;-64
2023/09/12 02:27:49;;;;;;;16.60;9.45;;;;;;;14.47;73.96;100472.65;1619129;88;21112;-64
2023/09/12 02:30:20;;;;;;;15.68;8.75;;;;;;;14.42;73.98;100482.61;1619289;87;21073;-64
2023/09/12 02:32:48;;;;;;;15.55;8.58;;;;;;;14.38;74.04;100476.70;1619437;89;21441;-64
2023/09/12 02:35:17;;;;;;;18.00;8.68;;;;;;;14.34;74.07;100476.83;1619413;88;21077;-63
2023/09/12 02:37:46;;;;;;;13.22;8.53;;;;;;;14.31;74.16;100474.52;1619386;89;21092;-64
2023/09/12 02:40:18;;;;;;;18.00;9.18;;;;;;;14.28;74.22;100481.28;1619301;88;21080;-65
2023/09/12 02:42:47;;;;;;;13.83;8.70;;;;;;;14.25;74.28;100474.83;1619307;87;21057;-64
2023/09/12 02:45:17;;;;;;;16.65;8.85;;;;;;;14.21;74.42;100477.71;1619563;89;21550;-64
2023/09/12 02:47:46;;;;;;;15.10;9.20;;;;;;;14.20;74.54;100482.91;1619345;87;21089;-63
2023/09/12 02:50:15;;;;;;;16.77;9.30;;;;;;;14.20;74.68;100473.27;1619435;87;21108;-64
2023/09/12 02:52:44;;;;;;;17.27;9.90;;;;;;;14.20;74.77;100477.93;1619279;87;21552;-65
2023/09/12 02:55:12;;;;;;;15.30;9.23;;;;;;;14.19;74.81;100474.86;1619237;87;21072;-64
2023/09/12 02:57:41;;;;;;;17.40;9.23;;;;;;;14.22;74.83;100480.78;1619315;88;21117;-64
2023/09/12 03:00:12;;;;;;;17.65;9.30;;;;;;;14.21;74.75;100479.09;1619523;89;21126;-64
2023/09/12 03:02:41;;;;;;;13.95;9.05;;;;;;;14.20;74.79;100480.16;1642563;86;21460;-64
2023/09/12 03:05:10;;;;;;;13.83;9.53;;;;;;;14.19;74.82;100479.84;1653381;87;21700;-64
2023/09/12 03:07:40;;;;;;;17.37;10.13;;;;;;;14.20;74.81;100482.06;1653414;87;21072;-64
2023/09/12 03:10:10;;;;;;;15.25;9.50;;;;;;;14.17;74.81;100478.37;1653640;87;21052;-65
2023/09/12 03:12:40;;;;;;;14.90;9.70;;;;;;;14.16;74.89;100476.15;1653503;87;21068;-64
2023/09/12 03:15:11;;;;;;;18.30;9.83;;;;;;;14.14;74.80;100482.94;1653374;86;21056;-64
2023/09/12 03:17:40;;;;;;;15.43;9.70;;;;;;;14.11;74.78;100485.60;1653474;86;21104;-64
2023/09/12 03:20:11;;;;;;;16.93;10.20;;;;;;;14.10;74.81;100481.16;1653542;87;21045;-64
2023/09/12 03:22:42;;;;;;;16.73;9.70;;;;;;;14.12;74.82;100487.30;1653542;87;21060;-63
2023/09/12 03:25:11;;;;;;;16.00;10.58;;;;;;;14.11;74.76;100486.98;1653385;87;21116;-64
2023/09/12 03:27:40;;;;;;;17.52;10.50;;;;;;;14.09;74.80;100494.62;1653543;87;21100;-64
2023/09/12 03:30:12;;;;;;;18.65;9.85;;;;;;;14.09;74.90;100492.40;1653534;87;21546;-65
2023/09/12 03:32:42;;;;;;;19.92;10.20;;;;;;;14.09;74.94;100489.11;1653703;87;21044;-65
2023/09/12 03:35:11;;;;;;;16.57;9.78;;;;;;;14.09;74.83;100493.24;1653578;87;21516;-64
2023/09/12 03:37:42;;;;;;;20.45;10.45;;;;;;;14.05;74.86;100491.98;1653631;87;21052;-64
2023/09/12 03:40:12;;;;;;;19.17;10.63;;;;;;;14.04;74.96;100491.67;1653730;87;21068;-65
2023/09/12 03:42:41;;;;;;;20.43;10.95;;;;;;;14.00;75.08;100490.42;1653495;87;21092;-64
2023/09/12 03:45:13;;;;;;;17.98;10.43;;;;;;;14.00;75.14;100495.08;1653390;87;21096;-63
2023/09/12 03:47:46;;;;;;;16.27;10.88;;;;;;;13.99;75.19;100488.73;1653612;87;21064;-64
2023/09/12 03:50:14;;;;;;;17.65;11.05;;;;;;;14.02;75.22;100491.58;1653397;86;21499;-63
2023/09/12 03:52:43;;;;;;;20.40;10.70;;;;;;;14.01;75.17;100492.11;1653687;87;21065;-63
2023/09/12 03:55:13;;;;;;;20.85;10.78;;;;;;;14.01;75.18;100488.52;1653700;87;21116;-65
2023/09/12 03:57:42;;;;;;;19.62;10.90;;;;;;;14.04;75.31;100494.43;1653351;87;21106;-66
2023/09/12 04:00:13;;;;;;;18.40;10.45;;;;;;;14.08;75.34;100490.70;1653446;87;21061;-65
2023/09/12 04:02:45;;;;;;;18.60;10.68;;;;;;;14.10;75.28;100494.94;1634186;85;21109;-65
2023/09/12 04:05:14;;;;;;;18.75;11.28;;;;;;;14.12;75.25;100492.80;1619314;89;21144;-64
2023/09/12 04:07:44;;;;;;;20.05;10.58;;;;;;;14.12;75.20;100501.61;1587843;89;21089;-64
2023/09/12 04:10:13;;;;;;;20.43;11.30;;;;;;;14.12;75.21;100499.70;1619478;89;21065;-64
2023/09/12 04:12:42;;;;;;;19.70;10.68;;;;;;;14.15;75.27;100504.77;1619411;89;21196;-65
2023/09/12 04:15:12;;;;;;;17.95;11.28;;;;;;;14.17;75.24;100503.17;1619507;87;21067;-66
2023/09/12 04:17:41;;;;;;;20.00;11.93;;;;;;;14.17;75.29;100509.53;1601520;89;21085;-65
2023/09/12 04:20:13;;;;;;;17.30;11.53;;;;;;;14.19;75.38;100509.31;1619585;87;21076;-64
2023/09/12 04:22:43;;;;;;;19.25;11.63;;;;;;;14.21;75.39;100510.78;1619347;87;21486;-65
2023/09/12 04:25:13;;;;;;;24.67;13.35;;;;;;;14.25;75.30;100512.03;1619500;88;21069;-65
2023/09/12 04:27:42;;;;;;;20.82;12.95;;;;;;;14.28;75.17;100504.70;1619390;87;21708;-63
2023/09/12 04:30:12;;;;;;;18.90;11.33;;;;;;;14.29;75.14;100509.16;1619249;89;21997;-65
2023/09/12 04:32:42;;;;;;;19.40;11.70;;;;;;;14.33;75.05;100508.75;1619275;89;21488;-64
2023/09/12 04:35:12;;;;;;;21.45;12.10;;;;;;;14.39;74.97;100502.36;1619338;88;21092;-66
2023/09/12 04:37:42;;;;;;;23.60;12.50;;;;;;;14.45;74.88;100509.77;1619587;87;21120;-64
2023/09/12 04:40:12;;;;;;;22.87;12.33;;;;;;;14.49;74.79;100507.73;1619475;89;21121;-64
2023/09/12 04:42:44;;;;;;;21.97;13.03;;;;;;;14.53;74.78;100510.36;1619300;89;21097;-63
2023/09/12 04:45:14;;;;;;;23.85;12.98;;;;;;;14.58;74.77;100512.45;1619436;89;21088;-69
2023/09/12 04:47:44;;;;;;;21.45;12.63;;;;;;;14.64;74.73;100510.19;1619385;88;21065;-65
2023/09/12 04:50:15;;;;;;;20.27;13.05;;;;;;;14.70;74.73;100502.94;1619282;89;21108;-65
2023/09/12 04:52:44;;;;;;;23.18;12.55;;;;;;;14.75;74.73;100506.72;1619226;87;21073;-65
2023/09/12 04:55:13;;;;;;;21.33;12.33;;;;;;;14.81;74.91;100505.83;1619435;87;21082;-65
2023/09/12 04:57:42;;;;;;;21.77;12.65;;;;;;;14.88;75.06;100508.01;1619332;87;21112;-65
2023/09/12 05:00:13;;;;;;;22.62;12.47;;;;;;;14.94;75.22;100515.08;1619579;88;21033;-65
2023/09/12 05:02:43;;;;;;;24.27;12.53;;;;;;;15.00;75.33;100515.06;1633489;86;21104;-65
2023/09/12 05:05:12;;;;;;;25.05;13.75;;;;;;;15.07;75.50;100517.77;1653671;86;21514;-64
2023/09/12 05:07:43;;;;;;;28.07;15.45;;;;;;;15.14;75.58;100513.05;1653497;87;21060;-65
2023/09/12 05:10:13;;;;;;;28.20;14.28;;;;;;;15.20;75.61;100510.23;1653613;87;21052;-66
2023/09/12 05:12:43;;;;;;;30.75;15.23;;;;;;;15.26;75.60;100515.38;1653542;87;21112;-64
2023/09/12 05:15:12;;;;;;;26.90;15.00;;;;;;;15.32;75.59;100513.63;1653539;87;21466;-66
2023/09/12 05:17:42;;;;;;;24.90;13.75;;;;;;;15.36;75.59;100512.95;1653376;87;21029;-65
2023/09/12 05:20:12;;;;;;;25.32;14.18;;;;;;;15.41;75.61;100509.52;1653842;87;21049;-65
2023/09/12 05:22:44;;;;;;;22.70;12.25;;;;;;;15.47;75.66;100514.97;1653325;87;21064;-65
2023/09/12 05:25:14;;;;;;;28.87;13.53;;;;;;;15.54;75.50;100512.14;1653533;87;21049;-64
2023/09/12 05:27:44;;;;;;;22.60;12.43;;;;;;;15.62;75.27;100511.91;1653262;87;21072;-64
2023/09/12 05:30:14;;;;;;;23.90;13.80;;;;;;;15.71;74.97;100511.08;1653287;86;21492;-65
2023/09/12 05:32:43;;;;;;;21.27;12.95;;;;;;;15.77;74.59;100516.53;1653557;87;21064;-65
2023/09/12 05:35:13;;;;;;;20.95;13.32;;;;;;;15.84;74.21;100514.55;1653512;87;21017;-66
2023/09/12 05:37:44;;;;;;;23.22;13.40;;;;;;;15.91;73.90;100517.23;1634075;87;21215;-65
2023/09/12 05:40:13;;;;;;;25.70;11.78;;;;;;;15.97;73.59;100514.09;1653331;86;21525;-67
2023/09/12 05:42:43;;;;;;;24.37;12.30;;;;;;;16.03;73.18;100516.77;1653360;87;21089;-64
2023/09/12 05:45:13;;;;;;;20.35;12.03;;;;;;;16.09;72.64;100518.61;1653579;87;21033;-64
2023/09/12 05:47:42;;;;;;;23.18;13.00;;;;;;;16.15;72.28;100519.07;1653566;87;21049;-65
2023/09/12 05:50:12;;;;;;;28.75;12.68;;;;;;;16.22;71.91;100515.37;1653536;87;21021;-65
2023/09/12 05:52:42;;;;;;;22.75;12.55;;;;;;;16.27;71.55;100523.85;1653513;86;21106;-65
2023/09/12 05:55:13;;;;;;;22.90;12.68;;;;;;;16.31;71.16;100519.01;1653615;87;21116;-65
2023/09/12 05:57:43;;;;;;;23.83;12.03;;;;;;;16.37;70.78;100522.77;1653332;87;21069;-65
2023/09/12 06:00:15;;;;;;;28.25;13.18;;;;;;;16.41;70.45;100523.98;1653616;87;21036;-66
2023/09/12 06:02:45;;;;;;;23.30;12.15;;;;;;;16.45;70.20;100519.67;1643491;85;21132;-65
2023/09/12 06:05:16;;;;;;;19.37;11.20;;;;;;;16.51;70.03;100526.20;1619508;89;21030;-65
2023/09/12 06:07:46;;;;;;;22.73;11.40;;;;;;;16.55;69.90;100524.11;1601507;88;21080;-64
2023/09/12 06:10:16;;;;;;;25.50;12.68;;;;;;;16.61;69.75;100525.94;1622295;88;21049;-65
2023/09/12 06:12:45;;;;;;;24.12;11.83;;;;;;;16.67;69.57;100527.80;1619200;87;21120;-66
2023/09/12 06:15:14;;;;;;;26.25;11.68;;;;;;;16.70;69.34;100532.87;1619381;89;21183;-65
2023/09/12 06:17:44;;;;;;;21.10;11.57;;;;;;;16.77;69.21;100532.23;1619319;89;21108;-66
2023/09/12 06:20:14;;;;;;;17.98;11.20;;;;;;;16.84;69.08;100532.13;1619192;88;21092;-64
2023/09/12 06:22:44;;;;;;;20.97;10.88;;;;;;;16.89;68.87;100529.50;1619440;89;21053;-66
2023/09/12 06:25:13;;;;;;;18.35;10.55;;;;;;;16.95;68.46;100531.36;1619212;88;21085;-65
2023/09/12 06:27:42;;;;;;;26.12;10.40;;;;;;;17.01;68.14;100535.10;1619590;88;21153;-65
2023/09/12 06:30:13;;;;;;;24.35;12.10;;;;;;;17.05;67.89;100531.63;1619230;89;21073;-64
2023/09/12 06:32:42;;;;;;;17.05;10.63;;;;;;;17.10;67.57;100533.14;1619234;89;21137;-65
2023/09/12 06:35:12;;;;;;;16.17;10.72;;;;;;;17.17;67.02;100537.19;1619197;88;21100;-64
2023/09/12 06:37:41;;;;;;;20.62;10.50;;;;;;;17.19;66.57;100533.64;1619294;87;21065;-65
2023/09/12 06:40:11;;;;;;;18.10;10.43;;;;;;;17.25;66.27;100543.77;1619368;89;21057;-67
2023/09/12 06:42:42;;;;;;;22.73;10.65;;;;;;;17.30;65.75;100540.27;1619281;88;21057;-64
2023/09/12 06:45:11;;;;;;;21.23;10.55;;;;;;;17.34;65.39;100536.80;1619156;87;21053;-64
2023/09/12 06:47:40;;;;;;;18.42;10.23;;;;;;;17.40;64.89;100544.14;1619315;88;21045;-66
2023/09/12 06:50:10;;;;;;;21.30;11.20;;;;;;;17.47;64.51;100537.65;1619389;89;21100;-65
2023/09/12 06:52:41;;;;;;;16.77;9.60;;;;;;;17.51;64.21;100543.01;1619021;88;21570;-65
2023/09/12 06:55:10;;;;;;;19.40;10.45;;;;;;;17.58;64.04;100539.61;1619141;87;21575;-66
2023/09/12 06:57:40;;;;;;;18.32;10.03;;;;;;;17.63;63.71;100546.12;1619264;87;21100;-65
2023/09/12 07:00:12;;;;;;;22.07;11.22;;;;;;;17.68;63.26;100539.88;1619308;88;21124;-64
2023/09/12 07:02:41;;;;;;;20.17;10.03;;;;;;;17.73;62.95;100542.23;1623988;86;21108;-64
2023/09/12 07:05:11;;;;;;;21.87;10.05;;;;;;;17.79;62.60;100540.42;1653415;86;21105;-64
2023/09/12 07:07:55;;;;;;;40.50;23.45;;;;;;;17.84;61.85;100541.09;1653397;87;21607;-66
2023/09/12 07:10:25;;;;;;;19.90;11.90;;;;;;;17.91;61.46;100540.42;1653359;87;21112;-65
2023/09/12 07:12:54;;;;;;;14.30;9.58;;;;;;;17.95;60.95;100543.84;1653557;87;21111;-64
2023/09/12 07:15:23;;;;;;;18.98;10.55;;;;;;;18.02;60.55;100543.72;1653404;87;21080;-64
2023/09/12 07:17:54;;;;;;;17.98;9.25;;;;;;;18.08;60.84;100541.90;1653429;87;21025;-64
2023/09/12 07:20:23;;;;;;;19.07;9.05;;;;;;;18.12;60.80;100541.71;1653551;87;21124;-64
2023/09/12 07:22:53;;;;;;;20.05;9.85;;;;;;;18.17;60.05;100544.59;1653369;86;21088;-64
2023/09/12 07:25:23;;;;;;;17.95;9.55;;;;;;;18.22;59.86;100547.52;1653667;87;21539;-64
2023/09/12 07:27:52;;;;;;;14.68;9.55;;;;;;;18.28;59.92;100545.14;1653867;87;21056;-64
2023/09/12 07:30:23;;;;;;;17.45;9.95;;;;;;;18.33;59.95;100548.03;1653565;87;21052;-64
2023/09/12 07:32:52;;;;;;;17.55;9.35;;;;;;;18.38;60.02;100550.37;1653377;86;21894;-65
2023/09/12 07:35:23;;;;;;;20.72;9.18;;;;;;;18.45;59.64;100550.77;1653345;87;21093;-63
2023/09/12 07:37:54;;;;;;;15.18;9.63;;;;;;;18.51;59.01;100553.95;1653445;87;21108;-65
2023/09/12 07:40:24;;;;;;;18.02;9.18;;;;;;;18.59;58.49;100554.40;1653357;87;21507;-65
2023/09/12 07:42:55;;;;;;;17.55;9.73;;;;;;;18.66;58.23;100549.58;1653587;87;21081;-64
2023/09/12 07:45:24;;;;;;;25.88;11.28;;;;;;;18.72;57.73;100551.91;1635508;87;21068;-64
2023/09/12 07:47:53;;;;;;;22.75;9.95;;;;;;;18.80;57.69;100552.05;1653520;87;21501;-64
2023/09/12 07:50:23;;;;;;;22.10;9.85;;;;;;;18.94;57.65;100552.08;1653351;87;21490;-65
2023/09/12 07:52:52;;;;;;;14.47;8.80;;;;;;;19.22;57.15;100552.59;1653496;86;21532;-64
2023/09/12 07:55:23;;;;;;;17.05;9.53;;;;;;;19.66;55.99;100546.72;1653669;85;21473;-67
2023/09/12 07:57:53;;;;;;;17.75;9.00;;;;;;;20.21;54.47;100543.09;1662524;85;21043;-65
2023/09/12 08:00:23;;;;;;;20.25;8.95;;;;;;;20.80;53.14;100547.46;1662556;85;21063;-67
2023/09/12 08:02:53;;;;;;;14.15;8.30;;;;;;;21.39;51.55;100543.36;1672849;86;21083;-68
2023/09/12 08:05:21;;;;;;;17.52;8.95;;;;;;;21.90;50.07;100540.98;1663504;86;21056;-68
2023/09/12 08:07:51;;;;;;;15.63;9.15;;;;;;;22.42;49.00;100545.23;1658458;86;21099;-67
2023/09/12 08:10:21;;;;;;;19.25;9.95;;;;;;;22.94;48.00;100547.14;1658373;86;21060;-67
2023/09/12 08:12:51;;;;;;;26.27;11.50;;;;;;;23.38;46.82;100541.88;1657072;86;21108;-66
2023/09/12 08:15:20;;;;;;;15.60;9.15;;;;;;;23.80;45.40;100551.44;1653224;87;21104;-68
2023/09/12 08:17:51;;;;;;;21.50;8.55;;;;;;;24.18;44.62;100541.59;1653236;87;21524;-69
2023/09/12 08:20:21;;;;;;;22.40;9.23;;;;;;;24.62;43.04;100543.13;1653502;87;21036;-68
2023/09/12 08:22:50;;;;;;;17.67;8.88;;;;;;;24.98;42.47;100538.78;1677231;84;21119;-67
2023/09/12 08:25:19;;;;;;;18.92;9.03;;;;;;;25.27;41.43;100537.45;1677782;85;21471;-69
2023/09/12 08:27:48;;;;;;;20.30;9.33;;;;;;;25.52;40.65;100539.25;1677909;85;21464;-68
2023/09/12 08:30:18;;;;;;;19.65;9.28;;;;;;;25.80;39.98;100540.42;1669450;85;21108;-69
2023/09/12 08:32:48;;;;;;;17.35;8.70;;;;;;;26.03;39.38;100545.27;1661002;86;21502;-67
2023/09/12 08:35:17;;;;;;;16.30;7.45;;;;;;;26.25;38.86;100543.91;1656026;87;21444;-69
2023/09/12 08:37:49;;;;;;;15.68;7.80;;;;;;;26.47;38.02;100542.26;1655797;87;21524;-68
2023/09/12 08:40:21;;;;;;;16.55;7.95;;;;;;;26.57;37.28;100537.08;1655884;87;21524;-69
2023/09/12 08:42:50;;;;;;;14.93;8.08;;;;;;;26.65;36.53;100539.79;1656081;87;21140;-68
2023/09/12 08:45:20;;;;;;;17.65;8.58;;;;;;;26.64;36.77;100536.14;1655810;87;21087;-70
2023/09/12 08:47:51;;;;;;;16.05;7.87;;;;;;;26.66;37.11;100547.95;1655867;87;21180;-70
2023/09/12 08:50:23;;;;;;;16.45;11.18;;;;;;;26.67;35.96;100536.97;1655709;87;21021;-68
2023/09/12 08:52:51;;;;;;;13.60;7.12;;;;;;;26.53;35.65;100541.63;1655803;87;21056;-68
2023/09/12 08:55:22;;;;;;;15.13;7.22;;;;;;;26.31;36.56;100544.12;1654081;86;21088;-68
2023/09/12 08:57:52;;;;;;;18.40;7.80;;;;;;;26.31;36.56;100544.12;1655902;87;21084;-68
2023/09/12 09:00:35;;;;;;;15.48;6.92;;;;;;;26.22;36.78;100546.18;1656045;87;21142;-69
2023/09/12 09:03:06;;;;;;;13.53;6.60;;;;;;;26.15;36.81;100534.47;1655557;87;21084;-69
2023/09/12 09:05:36;;;;;;;14.40;6.08;;;;;;;26.08;36.90;100541.00;1655995;86;21047;-70
2023/09/12 09:08:05;;;;;;;9.65;6.50;;;;;;;25.94;36.43;100542.81;1657187;86;21096;-68
2023/09/12 09:10:36;;;;;;;16.70;7.10;;;;;;;25.82;36.45;100546.02;1657223;85;21038;-68
2023/09/12 09:13:06;;;;;;;21.27;10.90;;;;;;;25.72;36.74;100543.88;1656071;86;21553;-67
2023/09/12 09:15:37;;;;;;;13.28;6.20;;;;;;;25.63;36.35;100540.00;1657155;86;21039;-68
2023/09/12 09:18:05;;;;;;;12.75;4.95;;;;;;;25.49;36.05;100544.88;1657247;86;21094;-68
2023/09/12 09:20:35;;;;;;;10.25;5.78;;;;;;;25.31;35.66;100543.32;1657078;86;21078;-69
2023/09/12 09:23:08;;;;;;;7.58;4.67;;;;;;;25.21;35.62;100546.48;1657002;86;21074;-67
2023/09/12 09:25:42;;;;;;;8.85;4.37;;;;;;;25.15;35.44;100544.00;1669592;86;21529;-69
2023/09/12 09:28:18;;;;;;;7.12;4.12;;;;;;;25.05;34.42;100548.27;1657198;86;21144;-69
2023/09/12 09:30:51;;;;;;;8.20;4.50;;;;;;;24.99;34.17;100544.66;1657158;86;21090;-69
2023/09/12 09:33:22;;;;;;;8.83;3.98;;;;;;;24.95;33.82;100537.36;1657043;86;21047;-69
2023/09/12 09:35:53;;;;;;;7.50;4.45;;;;;;;24.87;34.15;100547.78;1657058;86;21459;-68
2023/09/12 09:38:23;;;;;;;9.73;4.87;;;;;;;24.78;33.89;100531.30;1669823;85;21536;-69
2023/09/12 09:40:53;;;;;;;14.87;5.50;;;;;;;24.78;34.69;100537.47;1647904;86;21114;-67
2023/09/12 09:43:24;;;;;;;8.88;5.47;;;;;;;24.76;35.35;100530.75;1657049;86;21082;-67
2023/09/12 09:45:54;;;;;;;12.93;5.85;;;;;;;24.74;35.85;100528.80;1657237;86;21102;-68
2023/09/12 09:48:26;;;;;;;7.65;4.67;;;;;;;24.71;36.28;100526.58;1656993;86;21534;-68
2023/09/12 09:51:02;;;;;;;8.48;4.85;;;;;;;24.68;35.95;100522.92;1657165;86;21135;-68
2023/09/12 09:53:34;;;;;;;9.13;4.78;;;;;;;24.62;35.52;100524.08;1657045;86;21509;-68
2023/09/12 09:56:16;;;;;;;11.22;5.10;;;;;;;24.56;36.13;100525.23;1657028;86;21067;-69
2023/09/12 09:58:52;;;;;;;10.90;5.12;;;;;;;24.52;36.13;100521.33;1657006;86;21082;-69
2023/09/12 10:01:29;;;;;;;10.10;4.78;;;;;;;24.50;36.20;100524.41;1657028;86;21031;-68
2023/09/12 10:04:00;;;;;;;8.48;5.03;;;;;;;24.52;35.78;100520.76;1658081;85;21107;-68
2023/09/12 10:06:30;;;;;;;9.45;5.30;;;;;;;24.52;35.58;100517.12;1633151;86;21028;-70
2023/09/12 10:08:59;;;;;;;8.63;4.70;;;;;;;24.53;35.58;100521.03;1658133;86;21087;-69
2023/09/12 10:11:29;;;;;;;11.93;5.20;;;;;;;24.54;35.41;100523.27;1658173;86;21044;-69
2023/09/12 10:14:00;;;;;;;9.60;4.80;;;;;;;24.50;35.45;100514.61;1658304;86;21084;-69
2023/09/12 10:16:35;;;;;;;8.40;4.60;;;;;;;24.46;35.66;100514.06;1654213;86;21591;-69
2023/09/12 10:19:15;;;;;;;7.90;3.47;;;;;;;24.44;34.85;100522.76;1658412;86;21028;-69
2023/09/12 10:22:09;;;;;;;6.95;3.87;;;;;;;24.40;33.14;100517.45;1658184;86;21083;-70
2023/09/12 10:24:39;;;;;;;6.08;4.08;;;;;;;24.33;33.45;100519.16;1636681;86;21052;-69
2023/09/12 10:27:10;;;;;;;7.90;4.12;;;;;;;24.29;33.76;100513.02;1658100;86;21164;-69
2023/09/12 10:29:40;;;;;;;7.62;4.15;;;;;;;24.26;33.96;100513.56;1658339;86;21076;-70
2023/09/12 10:32:09;;;;;;;8.03;4.53;;;;;;;24.21;33.81;100508.81;1658270;86;21048;-70
2023/09/12 10:34:38;;;;;;;8.18;4.70;;;;;;;24.22;34.05;100516.09;1658171;86;21570;-68
2023/09/12 10:37:07;;;;;;;7.47;4.67;;;;;;;24.21;33.93;100508.81;1658374;86;21459;-69
2023/09/12 10:39:36;;;;;;;7.28;4.15;;;;;;;24.24;33.81;100511.05;1658171;86;21617;-71
2023/09/12 10:42:06;;;;;;;8.00;4.22;;;;;;;24.27;33.44;100510.50;1658404;86;21048;-71
2023/09/12 10:44:36;;;;;;;9.58;3.45;;;;;;;24.27;32.94;100506.30;1658164;86;21071;-72
2023/09/12 10:47:06;;;;;;;7.75;3.80;;;;;;;24.25;32.07;100511.32;1654117;86;21563;-71
2023/09/12 10:49:36;;;;;;;8.45;3.55;;;;;;;24.20;32.10;100509.10;1658366;86;21087;-70
2023/09/12 10:52:06;;;;;;;8.93;3.90;;;;;;;24.15;32.47;100509.13;1657995;86;21060;-69
2023/09/12 10:54:40;;;;;;;7.30;3.92;;;;;;;24.10;33.02;100508.58;1654183;86;21056;-69
2023/09/12 10:57:15;;;;;;;6.20;3.40;;;;;;;24.05;32.97;100497.36;1658288;86;21072;-71
2023/09/12 11:00:09;;;;;;;5.12;3.40;;;;;;;24.07;32.55;100500.75;1658551;86;21124;-68
2023/09/12 11:02:37;;;;;;;11.05;4.58;;;;;;;24.11;32.35;100497.66;1658200;86;21088;-70
2023/09/12 11:05:08;;;;;;;9.80;4.70;;;;;;;24.15;32.20;100496.52;1668290;86;21544;-68
2023/09/12 11:07:42;;;;;;;7.05;3.47;;;;;;;24.19;32.33;100485.02;1656254;86;21086;-69
2023/09/12 11:10:19;;;;;;;8.78;3.90;;;;;;;24.22;32.31;100487.25;1673348;86;21039;-70
2023/09/12 11:12:54;;;;;;;6.70;3.30;;;;;;;24.24;32.30;100492.00;1673151;86;21107;-70
2023/09/12 11:15:25;;;;;;;6.72;3.52;;;;;;;24.27;32.01;100489.50;1673185;86;21082;-70
2023/09/12 11:18:06;;;;;;;6.03;3.50;;;;;;;24.27;32.14;100482.50;1673347;86;21102;-70
2023/09/12 11:20:55;;;;;;;5.45;3.37;;;;;;;24.26;32.19;100479.95;1673275;85;21062;-70
2023/09/12 11:23:25;;;;;;;6.30;3.72;;;;;;;24.25;32.29;100482.48;1672936;85;21075;-69
2023/09/12 11:26:05;;;;;;;9.75;3.95;;;;;;;24.22;32.27;100478.29;1673148;85;21497;-71
2023/09/12 11:28:34;;;;;;;7.70;3.50;;;;;;;24.24;32.37;100476.60;1672844;85;21078;-71
2023/09/12 11:31:03;;;;;;;6.55;3.45;;;;;;;24.29;32.24;100478.02;1673097;85;21091;-70